sensor_id;sensor_type;location;lat;lon;timestamp;P1;durP1;ratioP1;P2;durP2;ratioP2
82985;SDS011;72786;53.546;9.910;2024-02-14T00:00:10;6.65;;;2.03;;
82985;SDS011;72786;53.546;9.910;2024-02-14T00:02:45;3.92;;;2.05;;
82985;SDS011;72786;53.546;9.910;2024-02-14T00:05:15;3.70;;;2.13;;
82985;SDS011;72786;53.546;9.910;2024-02-14T00:07:42;3.35;;;1.95;;
82985;SDS011;72786;53.546;9.910;2024-02-14T00:10:09;6.03;;;1.70;;
82985;SDS011;72786;53.546;9.910;2024-02-14T00:12:35;6.85;;;2.42;;
82985;SDS011;72786;53.546;9.910;2024-02-14T00:15:03;4.38;;;2.00;;
82985;SDS011;72786;53.546;9.910;2024-02-14T00:17:32;7.35;;;2.28;;
82985;SDS011;72786;53.546;9.910;2024-02-14T00:20:03;3.22;;;1.90;;
82985;SDS011;72786;53.546;9.910;2024-02-14T00:22:30;5.47;;;1.88;;
82985;SDS011;72786;53.546;9.910;2024-02-14T00:24:57;5.22;;;1.90;;
82985;SDS011;72786;53.546;9.910;2024-02-14T00:27:23;4.82;;;2.25;;
82985;SDS011;72786;53.546;9.910;2024-02-14T00:29:52;3.53;;;2.00;;
82985;SDS011;72786;53.546;9.910;2024-02-14T00:32:20;5.50;;;2.25;;
82985;SDS011;72786;53.546;9.910;2024-02-14T00:34:46;5.95;;;2.30;;
82985;SDS011;72786;53.546;9.910;2024-02-14T00:37:13;5.85;;;2.15;;
82985;SDS011;72786;53.546;9.910;2024-02-14T00:39:40;5.57;;;2.03;;
82985;SDS011;72786;53.546;9.910;2024-02-14T00:42:06;3.72;;;2.00;;
82985;SDS011;72786;53.546;9.910;2024-02-14T00:44:33;4.18;;;2.22;;
82985;SDS011;72786;53.546;9.910;2024-02-14T00:47:00;4.68;;;2.13;;
82985;SDS011;72786;53.546;9.910;2024-02-14T00:49:28;5.57;;;2.05;;
82985;SDS011;72786;53.546;9.910;2024-02-14T00:51:55;5.28;;;2.05;;
82985;SDS011;72786;53.546;9.910;2024-02-14T00:54:21;4.22;;;1.80;;
82985;SDS011;72786;53.546;9.910;2024-02-14T00:56:48;6.28;;;2.35;;
82985;SDS011;72786;53.546;9.910;2024-02-14T00:59:14;6.95;;;1.90;;
82985;SDS011;72786;53.546;9.910;2024-02-14T01:01:40;8.18;;;2.63;;
82985;SDS011;72786;53.546;9.910;2024-02-14T01:04:07;3.92;;;2.17;;
82985;SDS011;72786;53.546;9.910;2024-02-14T01:06:34;6.03;;;2.05;;
82985;SDS011;72786;53.546;9.910;2024-02-14T01:09:00;5.43;;;2.15;;
82985;SDS011;72786;53.546;9.910;2024-02-14T01:11:27;4.72;;;2.10;;
82985;SDS011;72786;53.546;9.910;2024-02-14T01:13:54;7.32;;;2.17;;
82985;SDS011;72786;53.546;9.910;2024-02-14T01:16:21;4.30;;;2.40;;
82985;SDS011;72786;53.546;9.910;2024-02-14T01:18:47;7.47;;;2.55;;
82985;SDS011;72786;53.546;9.910;2024-02-14T01:21:14;7.50;;;2.92;;
82985;SDS011;72786;53.546;9.910;2024-02-14T01:23:40;4.22;;;2.40;;
82985;SDS011;72786;53.546;9.910;2024-02-14T01:26:07;7.07;;;2.53;;
82985;SDS011;72786;53.546;9.910;2024-02-14T01:28:33;4.70;;;2.92;;
82985;SDS011;72786;53.546;9.910;2024-02-14T01:31:00;5.22;;;2.90;;
82985;SDS011;72786;53.546;9.910;2024-02-14T01:33:26;6.22;;;3.00;;
82985;SDS011;72786;53.546;9.910;2024-02-14T01:35:53;4.90;;;3.05;;
82985;SDS011;72786;53.546;9.910;2024-02-14T01:38:20;5.82;;;2.90;;
82985;SDS011;72786;53.546;9.910;2024-02-14T01:40:46;8.10;;;3.65;;
82985;SDS011;72786;53.546;9.910;2024-02-14T01:43:13;5.65;;;3.35;;
82985;SDS011;72786;53.546;9.910;2024-02-14T01:45:40;7.38;;;3.40;;
82985;SDS011;72786;53.546;9.910;2024-02-14T01:48:07;8.00;;;3.50;;
82985;SDS011;72786;53.546;9.910;2024-02-14T01:50:35;8.43;;;4.57;;
82985;SDS011;72786;53.546;9.910;2024-02-14T01:53:02;9.18;;;3.75;;
82985;SDS011;72786;53.546;9.910;2024-02-14T01:55:30;5.45;;;3.10;;
82985;SDS011;72786;53.546;9.910;2024-02-14T01:57:56;7.45;;;3.83;;
82985;SDS011;72786;53.546;9.910;2024-02-14T02:00:23;8.73;;;3.55;;
82985;SDS011;72786;53.546;9.910;2024-02-14T02:02:53;10.50;;;4.35;;
82985;SDS011;72786;53.546;9.910;2024-02-14T02:05:22;7.07;;;3.40;;
82985;SDS011;72786;53.546;9.910;2024-02-14T02:07:49;6.57;;;4.00;;
82985;SDS011;72786;53.546;9.910;2024-02-14T02:10:16;8.15;;;4.50;;
82985;SDS011;72786;53.546;9.910;2024-02-14T02:12:42;9.02;;;4.53;;
82985;SDS011;72786;53.546;9.910;2024-02-14T02:15:10;10.52;;;5.18;;
82985;SDS011;72786;53.546;9.910;2024-02-14T02:17:39;9.65;;;4.53;;
82985;SDS011;72786;53.546;9.910;2024-02-14T02:20:06;7.65;;;4.10;;
82985;SDS011;72786;53.546;9.910;2024-02-14T02:22:35;11.15;;;4.32;;
82985;SDS011;72786;53.546;9.910;2024-02-14T02:25:02;7.45;;;4.35;;
82985;SDS011;72786;53.546;9.910;2024-02-14T02:27:29;7.70;;;4.30;;
82985;SDS011;72786;53.546;9.910;2024-02-14T02:29:56;7.35;;;4.10;;
82985;SDS011;72786;53.546;9.910;2024-02-14T02:32:22;9.38;;;4.00;;
82985;SDS011;72786;53.546;9.910;2024-02-14T02:34:49;8.32;;;3.72;;
82985;SDS011;72786;53.546;9.910;2024-02-14T02:37:15;9.10;;;3.50;;
82985;SDS011;72786;53.546;9.910;2024-02-14T02:39:42;8.48;;;4.05;;
82985;SDS011;72786;53.546;9.910;2024-02-14T02:42:09;7.50;;;3.72;;
82985;SDS011;72786;53.546;9.910;2024-02-14T02:44:38;7.85;;;3.30;;
82985;SDS011;72786;53.546;9.910;2024-02-14T02:47:04;5.00;;;3.08;;
82985;SDS011;72786;53.546;9.910;2024-02-14T02:49:31;6.68;;;3.15;;
82985;SDS011;72786;53.546;9.910;2024-02-14T02:51:57;10.57;;;3.60;;
82985;SDS011;72786;53.546;9.910;2024-02-14T02:54:24;5.82;;;3.03;;
82985;SDS011;72786;53.546;9.910;2024-02-14T02:56:50;7.78;;;3.10;;
82985;SDS011;72786;53.546;9.910;2024-02-14T02:59:17;7.82;;;3.80;;
82985;SDS011;72786;53.546;9.910;2024-02-14T03:01:43;6.07;;;3.58;;
82985;SDS011;72786;53.546;9.910;2024-02-14T03:04:10;9.48;;;3.95;;
82985;SDS011;72786;53.546;9.910;2024-02-14T03:06:39;9.02;;;4.60;;
82985;SDS011;72786;53.546;9.910;2024-02-14T03:09:06;7.53;;;4.18;;
82985;SDS011;72786;53.546;9.910;2024-02-14T03:11:34;6.63;;;4.00;;
82985;SDS011;72786;53.546;9.910;2024-02-14T03:14:03;8.73;;;3.88;;
82985;SDS011;72786;53.546;9.910;2024-02-14T03:16:30;7.68;;;3.65;;
82985;SDS011;72786;53.546;9.910;2024-02-14T03:18:57;7.40;;;4.10;;
82985;SDS011;72786;53.546;9.910;2024-02-14T03:21:25;9.50;;;4.63;;
82985;SDS011;72786;53.546;9.910;2024-02-14T03:23:51;9.15;;;4.00;;
82985;SDS011;72786;53.546;9.910;2024-02-14T03:26:20;9.43;;;4.10;;
82985;SDS011;72786;53.546;9.910;2024-02-14T03:28:46;9.30;;;4.18;;
82985;SDS011;72786;53.546;9.910;2024-02-14T03:31:14;7.25;;;3.83;;
82985;SDS011;72786;53.546;9.910;2024-02-14T03:33:42;10.57;;;3.45;;
82985;SDS011;72786;53.546;9.910;2024-02-14T03:36:09;11.00;;;3.65;;
82985;SDS011;72786;53.546;9.910;2024-02-14T03:38:36;7.68;;;3.40;;
82985;SDS011;72786;53.546;9.910;2024-02-14T03:41:06;10.02;;;4.20;;
82985;SDS011;72786;53.546;9.910;2024-02-14T03:43:32;8.25;;;3.50;;
82985;SDS011;72786;53.546;9.910;2024-02-14T03:45:58;8.23;;;3.90;;
82985;SDS011;72786;53.546;9.910;2024-02-14T03:48:25;8.80;;;3.85;;
82985;SDS011;72786;53.546;9.910;2024-02-14T03:50:52;10.63;;;4.63;;
82985;SDS011;72786;53.546;9.910;2024-02-14T03:53:18;7.85;;;4.18;;
82985;SDS011;72786;53.546;9.910;2024-02-14T03:55:44;10.43;;;4.30;;
82985;SDS011;72786;53.546;9.910;2024-02-14T03:58:11;7.32;;;3.85;;
82985;SDS011;72786;53.546;9.910;2024-02-14T04:00:40;6.40;;;3.65;;
82985;SDS011;72786;53.546;9.910;2024-02-14T04:03:06;5.82;;;3.40;;
82985;SDS011;72786;53.546;9.910;2024-02-14T04:05:33;6.80;;;3.28;;
82985;SDS011;72786;53.546;9.910;2024-02-14T04:07:59;7.45;;;3.35;;
82985;SDS011;72786;53.546;9.910;2024-02-14T04:10:26;8.82;;;3.78;;
82985;SDS011;72786;53.546;9.910;2024-02-14T04:12:52;7.00;;;3.55;;
82985;SDS011;72786;53.546;9.910;2024-02-14T04:15:19;8.43;;;3.85;;
82985;SDS011;72786;53.546;9.910;2024-02-14T04:17:45;7.20;;;3.70;;
82985;SDS011;72786;53.546;9.910;2024-02-14T04:20:12;8.55;;;4.10;;
82985;SDS011;72786;53.546;9.910;2024-02-14T04:22:38;9.60;;;3.83;;
82985;SDS011;72786;53.546;9.910;2024-02-14T04:25:07;10.45;;;3.97;;
82985;SDS011;72786;53.546;9.910;2024-02-14T04:27:33;12.85;;;4.20;;
82985;SDS011;72786;53.546;9.910;2024-02-14T04:30:00;8.88;;;3.95;;
82985;SDS011;72786;53.546;9.910;2024-02-14T04:32:28;9.70;;;4.32;;
82985;SDS011;72786;53.546;9.910;2024-02-14T04:34:54;8.68;;;3.92;;
82985;SDS011;72786;53.546;9.910;2024-02-14T04:37:21;11.05;;;4.38;;
82985;SDS011;72786;53.546;9.910;2024-02-14T04:39:48;11.57;;;4.35;;
82985;SDS011;72786;53.546;9.910;2024-02-14T04:42:14;10.13;;;4.70;;
82985;SDS011;72786;53.546;9.910;2024-02-14T04:44:41;9.68;;;4.63;;
82985;SDS011;72786;53.546;9.910;2024-02-14T04:47:07;13.40;;;4.70;;
82985;SDS011;72786;53.546;9.910;2024-02-14T04:49:35;11.65;;;4.18;;
82985;SDS011;72786;53.546;9.910;2024-02-14T04:52:03;11.20;;;4.15;;
82985;SDS011;72786;53.546;9.910;2024-02-14T04:54:30;11.80;;;4.30;;
82985;SDS011;72786;53.546;9.910;2024-02-14T04:56:57;11.75;;;4.47;;
82985;SDS011;72786;53.546;9.910;2024-02-14T04:59:28;8.63;;;4.80;;
82985;SDS011;72786;53.546;9.910;2024-02-14T05:01:54;12.60;;;4.75;;
82985;SDS011;72786;53.546;9.910;2024-02-14T05:04:22;9.10;;;4.47;;
82985;SDS011;72786;53.546;9.910;2024-02-14T05:06:49;12.20;;;5.10;;
82985;SDS011;72786;53.546;9.910;2024-02-14T05:09:19;13.20;;;4.68;;
82985;SDS011;72786;53.546;9.910;2024-02-14T05:11:46;12.27;;;5.00;;
82985;SDS011;72786;53.546;9.910;2024-02-14T05:14:12;9.15;;;4.88;;
82985;SDS011;72786;53.546;9.910;2024-02-14T05:16:39;11.55;;;4.80;;
82985;SDS011;72786;53.546;9.910;2024-02-14T05:19:05;11.77;;;5.40;;
82985;SDS011;72786;53.546;9.910;2024-02-14T05:21:32;9.23;;;4.63;;
82985;SDS011;72786;53.546;9.910;2024-02-14T05:23:58;12.95;;;4.90;;
82985;SDS011;72786;53.546;9.910;2024-02-14T05:26:25;11.52;;;4.95;;
82985;SDS011;72786;53.546;9.910;2024-02-14T05:28:51;10.48;;;5.22;;
82985;SDS011;72786;53.546;9.910;2024-02-14T05:31:18;9.05;;;4.45;;
82985;SDS011;72786;53.546;9.910;2024-02-14T05:33:44;10.02;;;4.95;;
82985;SDS011;72786;53.546;9.910;2024-02-14T05:36:11;11.52;;;4.90;;
82985;SDS011;72786;53.546;9.910;2024-02-14T05:38:38;8.85;;;4.63;;
82985;SDS011;72786;53.546;9.910;2024-02-14T05:41:04;10.75;;;4.80;;
82985;SDS011;72786;53.546;9.910;2024-02-14T05:43:31;10.13;;;4.75;;
82985;SDS011;72786;53.546;9.910;2024-02-14T05:45:57;10.65;;;4.50;;
82985;SDS011;72786;53.546;9.910;2024-02-14T05:48:24;12.40;;;4.38;;
82985;SDS011;72786;53.546;9.910;2024-02-14T05:50:50;8.93;;;4.38;;
82985;SDS011;72786;53.546;9.910;2024-02-14T05:53:17;10.85;;;4.90;;
82985;SDS011;72786;53.546;9.910;2024-02-14T05:55:44;9.07;;;4.95;;
82985;SDS011;72786;53.546;9.910;2024-02-14T05:58:10;9.40;;;4.90;;
82985;SDS011;72786;53.546;9.910;2024-02-14T06:00:38;9.40;;;4.30;;
82985;SDS011;72786;53.546;9.910;2024-02-14T06:03:05;8.90;;;4.88;;
82985;SDS011;72786;53.546;9.910;2024-02-14T06:05:33;11.25;;;4.32;;
82985;SDS011;72786;53.546;9.910;2024-02-14T06:07:59;10.00;;;4.68;;
82985;SDS011;72786;53.546;9.910;2024-02-14T06:10:26;8.77;;;4.53;;
82985;SDS011;72786;53.546;9.910;2024-02-14T06:12:52;9.77;;;4.95;;
82985;SDS011;72786;53.546;9.910;2024-02-14T06:15:19;9.23;;;4.68;;
82985;SDS011;72786;53.546;9.910;2024-02-14T06:17:45;12.25;;;5.13;;
82985;SDS011;72786;53.546;9.910;2024-02-14T06:20:12;9.00;;;4.95;;
82985;SDS011;72786;53.546;9.910;2024-02-14T06:22:39;9.60;;;4.38;;
82985;SDS011;72786;53.546;9.910;2024-02-14T06:25:15;10.77;;;4.93;;
82985;SDS011;72786;53.546;9.910;2024-02-14T06:27:42;8.18;;;4.55;;
82985;SDS011;72786;53.546;9.910;2024-02-14T06:30:09;10.43;;;4.72;;
82985;SDS011;72786;53.546;9.910;2024-02-14T06:32:36;10.82;;;4.70;;
82985;SDS011;72786;53.546;9.910;2024-02-14T06:35:03;9.82;;;4.85;;
82985;SDS011;72786;53.546;9.910;2024-02-14T06:37:30;8.60;;;4.65;;
82985;SDS011;72786;53.546;9.910;2024-02-14T06:40:10;12.48;;;4.95;;
82985;SDS011;72786;53.546;9.910;2024-02-14T06:42:37;10.43;;;4.45;;
82985;SDS011;72786;53.546;9.910;2024-02-14T06:45:06;11.93;;;5.25;;
82985;SDS011;72786;53.546;9.910;2024-02-14T06:47:33;10.00;;;4.80;;
82985;SDS011;72786;53.546;9.910;2024-02-14T06:49:59;9.00;;;4.80;;
82985;SDS011;72786;53.546;9.910;2024-02-14T06:52:26;9.25;;;4.85;;
82985;SDS011;72786;53.546;9.910;2024-02-14T06:54:52;9.30;;;4.45;;
82985;SDS011;72786;53.546;9.910;2024-02-14T06:57:19;10.48;;;4.60;;
82985;SDS011;72786;53.546;9.910;2024-02-14T06:59:45;10.50;;;5.13;;
82985;SDS011;72786;53.546;9.910;2024-02-14T07:02:11;13.40;;;5.90;;
82985;SDS011;72786;53.546;9.910;2024-02-14T07:04:39;14.43;;;6.03;;
82985;SDS011;72786;53.546;9.910;2024-02-14T07:07:06;11.30;;;5.18;;
82985;SDS011;72786;53.546;9.910;2024-02-14T07:09:34;12.68;;;5.13;;
82985;SDS011;72786;53.546;9.910;2024-02-14T07:12:03;12.00;;;5.68;;
82985;SDS011;72786;53.546;9.910;2024-02-14T07:14:29;11.85;;;5.32;;
82985;SDS011;72786;53.546;9.910;2024-02-14T07:16:56;11.90;;;4.93;;
82985;SDS011;72786;53.546;9.910;2024-02-14T07:19:22;10.15;;;5.30;;
82985;SDS011;72786;53.546;9.910;2024-02-14T07:21:49;15.90;;;6.10;;
82985;SDS011;72786;53.546;9.910;2024-02-14T07:24:15;11.63;;;5.97;;
82985;SDS011;72786;53.546;9.910;2024-02-14T07:26:42;10.68;;;5.53;;
82985;SDS011;72786;53.546;9.910;2024-02-14T07:29:10;13.10;;;5.68;;
82985;SDS011;72786;53.546;9.910;2024-02-14T07:31:37;12.25;;;5.82;;
82985;SDS011;72786;53.546;9.910;2024-02-14T07:34:03;9.75;;;5.40;;
82985;SDS011;72786;53.546;9.910;2024-02-14T07:39:01;12.98;;;5.38;;
82985;SDS011;72786;53.546;9.910;2024-02-14T07:41:28;13.07;;;5.95;;
82985;SDS011;72786;53.546;9.910;2024-02-14T07:43:54;12.20;;;5.45;;
82985;SDS011;72786;53.546;9.910;2024-02-14T07:46:22;12.27;;;5.68;;
82985;SDS011;72786;53.546;9.910;2024-02-14T07:48:50;11.55;;;5.47;;
82985;SDS011;72786;53.546;9.910;2024-02-14T07:51:16;13.10;;;5.72;;
82985;SDS011;72786;53.546;9.910;2024-02-14T07:53:45;11.23;;;5.85;;
82985;SDS011;72786;53.546;9.910;2024-02-14T07:56:11;10.32;;;5.68;;
82985;SDS011;72786;53.546;9.910;2024-02-14T07:58:38;13.77;;;6.00;;
82985;SDS011;72786;53.546;9.910;2024-02-14T08:01:05;9.98;;;5.22;;
82985;SDS011;72786;53.546;9.910;2024-02-14T08:03:31;11.98;;;5.90;;
82985;SDS011;72786;53.546;9.910;2024-02-14T08:05:58;10.27;;;5.90;;
82985;SDS011;72786;53.546;9.910;2024-02-14T08:08:25;12.77;;;5.93;;
82985;SDS011;72786;53.546;9.910;2024-02-14T08:10:53;12.80;;;5.95;;
82985;SDS011;72786;53.546;9.910;2024-02-14T08:13:21;10.80;;;5.45;;
82985;SDS011;72786;53.546;9.910;2024-02-14T08:15:47;11.68;;;5.30;;
82985;SDS011;72786;53.546;9.910;2024-02-14T08:18:14;13.90;;;5.68;;
82985;SDS011;72786;53.546;9.910;2024-02-14T08:20:41;12.95;;;5.85;;
82985;SDS011;72786;53.546;9.910;2024-02-14T08:23:08;12.40;;;5.68;;
82985;SDS011;72786;53.546;9.910;2024-02-14T08:25:34;11.38;;;5.97;;
82985;SDS011;72786;53.546;9.910;2024-02-14T08:28:01;12.82;;;5.93;;
82985;SDS011;72786;53.546;9.910;2024-02-14T08:30:27;11.80;;;6.18;;
82985;SDS011;72786;53.546;9.910;2024-02-14T08:32:53;13.38;;;6.03;;
82985;SDS011;72786;53.546;9.910;2024-02-14T08:35:20;12.98;;;6.50;;
82985;SDS011;72786;53.546;9.910;2024-02-14T08:37:47;12.30;;;5.50;;
82985;SDS011;72786;53.546;9.910;2024-02-14T08:40:14;13.23;;;6.05;;
82985;SDS011;72786;53.546;9.910;2024-02-14T08:42:40;11.75;;;5.90;;
82985;SDS011;72786;53.546;9.910;2024-02-14T08:45:07;11.85;;;5.97;;
82985;SDS011;72786;53.546;9.910;2024-02-14T08:47:35;10.55;;;5.65;;
82985;SDS011;72786;53.546;9.910;2024-02-14T08:50:01;13.45;;;5.80;;
82985;SDS011;72786;53.546;9.910;2024-02-14T08:52:29;12.80;;;5.90;;
82985;SDS011;72786;53.546;9.910;2024-02-14T08:54:55;13.55;;;6.68;;
82985;SDS011;72786;53.546;9.910;2024-02-14T08:57:22;12.77;;;5.70;;
82985;SDS011;72786;53.546;9.910;2024-02-14T08:59:49;13.93;;;5.75;;
82985;SDS011;72786;53.546;9.910;2024-02-14T09:02:16;8.10;;;4.15;;
82985;SDS011;72786;53.546;9.910;2024-02-14T09:04:43;7.88;;;3.78;;
82985;SDS011;72786;53.546;9.910;2024-02-14T09:07:12;7.93;;;2.92;;
82985;SDS011;72786;53.546;9.910;2024-02-14T09:09:39;9.13;;;3.55;;
82985;SDS011;72786;53.546;9.910;2024-02-14T09:12:06;5.65;;;2.90;;
82985;SDS011;72786;53.546;9.910;2024-02-14T09:14:32;6.65;;;3.35;;
82985;SDS011;72786;53.546;9.910;2024-02-14T09:16:59;6.88;;;3.03;;
82985;SDS011;72786;53.546;9.910;2024-02-14T09:19:25;6.72;;;3.08;;
82985;SDS011;72786;53.546;9.910;2024-02-14T09:21:53;6.00;;;3.13;;
82985;SDS011;72786;53.546;9.910;2024-02-14T09:24:20;6.53;;;3.38;;
82985;SDS011;72786;53.546;9.910;2024-02-14T09:26:46;7.40;;;2.58;;
82985;SDS011;72786;53.546;9.910;2024-02-14T09:29:13;6.90;;;3.40;;
82985;SDS011;72786;53.546;9.910;2024-02-14T09:31:41;6.00;;;2.90;;
82985;SDS011;72786;53.546;9.910;2024-02-14T09:34:08;6.97;;;3.30;;
82985;SDS011;72786;53.546;9.910;2024-02-14T09:36:37;6.03;;;3.20;;
82985;SDS011;72786;53.546;9.910;2024-02-14T09:39:03;5.88;;;2.83;;
82985;SDS011;72786;53.546;9.910;2024-02-14T09:41:37;6.30;;;3.17;;
82985;SDS011;72786;53.546;9.910;2024-02-14T09:44:09;7.05;;;3.40;;
82985;SDS011;72786;53.546;9.910;2024-02-14T09:46:36;8.07;;;3.63;;
82985;SDS011;72786;53.546;9.910;2024-02-14T09:49:03;6.05;;;3.03;;
82985;SDS011;72786;53.546;9.910;2024-02-14T09:51:31;5.72;;;2.83;;
82985;SDS011;72786;53.546;9.910;2024-02-14T09:53:59;5.75;;;2.90;;
82985;SDS011;72786;53.546;9.910;2024-02-14T09:56:26;6.05;;;3.28;;
82985;SDS011;72786;53.546;9.910;2024-02-14T09:58:54;6.25;;;2.92;;
82985;SDS011;72786;53.546;9.910;2024-02-14T10:01:26;6.75;;;2.97;;
82985;SDS011;72786;53.546;9.910;2024-02-14T10:03:53;6.93;;;3.00;;
82985;SDS011;72786;53.546;9.910;2024-02-14T10:06:20;6.28;;;3.10;;
82985;SDS011;72786;53.546;9.910;2024-02-14T10:08:48;7.10;;;3.10;;
82985;SDS011;72786;53.546;9.910;2024-02-14T10:11:29;6.40;;;3.00;;
82985;SDS011;72786;53.546;9.910;2024-02-14T10:13:58;6.25;;;3.10;;
82985;SDS011;72786;53.546;9.910;2024-02-14T10:16:29;6.13;;;2.95;;
82985;SDS011;72786;53.546;9.910;2024-02-14T10:18:55;5.32;;;3.00;;
82985;SDS011;72786;53.546;9.910;2024-02-14T10:21:25;7.97;;;3.28;;
82985;SDS011;72786;53.546;9.910;2024-02-14T10:23:54;6.47;;;3.08;;
82985;SDS011;72786;53.546;9.910;2024-02-14T10:26:24;4.82;;;2.40;;
82985;SDS011;72786;53.546;9.910;2024-02-14T10:28:50;5.45;;;2.75;;
82985;SDS011;72786;53.546;9.910;2024-02-14T10:31:17;7.70;;;2.70;;
82985;SDS011;72786;53.546;9.910;2024-02-14T10:33:44;7.15;;;2.65;;
82985;SDS011;72786;53.546;9.910;2024-02-14T10:36:12;5.72;;;3.20;;
82985;SDS011;72786;53.546;9.910;2024-02-14T10:38:39;5.15;;;2.58;;
82985;SDS011;72786;53.546;9.910;2024-02-14T10:41:06;5.45;;;3.00;;
82985;SDS011;72786;53.546;9.910;2024-02-14T10:43:36;6.72;;;2.60;;
82985;SDS011;72786;53.546;9.910;2024-02-14T10:46:07;5.60;;;2.80;;
82985;SDS011;72786;53.546;9.910;2024-02-14T10:48:38;5.07;;;2.83;;
82985;SDS011;72786;53.546;9.910;2024-02-14T10:51:05;5.57;;;2.63;;
82985;SDS011;72786;53.546;9.910;2024-02-14T10:53:36;5.03;;;2.70;;
82985;SDS011;72786;53.546;9.910;2024-02-14T10:56:09;5.43;;;2.70;;
82985;SDS011;72786;53.546;9.910;2024-02-14T10:58:35;6.05;;;2.92;;
82985;SDS011;72786;53.546;9.910;2024-02-14T11:01:03;6.25;;;2.67;;
82985;SDS011;72786;53.546;9.910;2024-02-14T11:03:29;5.03;;;2.67;;
82985;SDS011;72786;53.546;9.910;2024-02-14T11:06:00;6.03;;;2.70;;
82985;SDS011;72786;53.546;9.910;2024-02-14T11:08:30;5.28;;;2.60;;
82985;SDS011;72786;53.546;9.910;2024-02-14T11:11:01;5.75;;;2.72;;
82985;SDS011;72786;53.546;9.910;2024-02-14T11:13:30;6.80;;;3.20;;
82985;SDS011;72786;53.546;9.910;2024-02-14T11:16:01;6.72;;;3.15;;
82985;SDS011;72786;53.546;9.910;2024-02-14T11:18:28;7.03;;;3.63;;
82985;SDS011;72786;53.546;9.910;2024-02-14T11:21:03;6.30;;;3.22;;
82985;SDS011;72786;53.546;9.910;2024-02-14T11:23:31;7.32;;;3.80;;
82985;SDS011;72786;53.546;9.910;2024-02-14T11:26:01;7.97;;;3.72;;
82985;SDS011;72786;53.546;9.910;2024-02-14T11:28:29;8.00;;;3.97;;
82985;SDS011;72786;53.546;9.910;2024-02-14T11:31:02;7.45;;;3.75;;
82985;SDS011;72786;53.546;9.910;2024-02-14T11:33:30;7.85;;;3.97;;
82985;SDS011;72786;53.546;9.910;2024-02-14T11:35:58;8.23;;;4.05;;
82985;SDS011;72786;53.546;9.910;2024-02-14T11:38:33;8.38;;;3.95;;
82985;SDS011;72786;53.546;9.910;2024-02-14T11:41:01;9.15;;;4.07;;
82985;SDS011;72786;53.546;9.910;2024-02-14T11:43:29;9.35;;;3.95;;
82985;SDS011;72786;53.546;9.910;2024-02-14T11:45:58;9.52;;;4.20;;
82985;SDS011;72786;53.546;9.910;2024-02-14T11:48:24;8.13;;;4.00;;
82985;SDS011;72786;53.546;9.910;2024-02-14T11:50:51;8.68;;;3.80;;
82985;SDS011;72786;53.546;9.910;2024-02-14T11:53:20;8.35;;;4.30;;
82985;SDS011;72786;53.546;9.910;2024-02-14T11:55:47;8.57;;;4.10;;
82985;SDS011;72786;53.546;9.910;2024-02-14T11:58:14;8.57;;;4.30;;
82985;SDS011;72786;53.546;9.910;2024-02-14T12:00:43;8.35;;;4.30;;
82985;SDS011;72786;53.546;9.910;2024-02-14T12:03:15;10.07;;;4.55;;
82985;SDS011;72786;53.546;9.910;2024-02-14T12:05:43;9.52;;;4.43;;
82985;SDS011;72786;53.546;9.910;2024-02-14T12:08:13;8.57;;;4.10;;
82985;SDS011;72786;53.546;9.910;2024-02-14T12:10:44;7.80;;;3.92;;
82985;SDS011;72786;53.546;9.910;2024-02-14T12:13:17;10.82;;;4.75;;
82985;SDS011;72786;53.546;9.910;2024-02-14T12:15:46;8.48;;;4.45;;
82985;SDS011;72786;53.546;9.910;2024-02-14T12:18:13;8.52;;;4.15;;
82985;SDS011;72786;53.546;9.910;2024-02-14T12:20:42;10.13;;;4.40;;
82985;SDS011;72786;53.546;9.910;2024-02-14T12:23:15;10.75;;;4.78;;
82985;SDS011;72786;53.546;9.910;2024-02-14T12:25:47;11.50;;;5.32;;
82985;SDS011;72786;53.546;9.910;2024-02-14T12:28:15;11.00;;;5.25;;
82985;SDS011;72786;53.546;9.910;2024-02-14T12:30:43;9.80;;;4.82;;
82985;SDS011;72786;53.546;9.910;2024-02-14T12:33:26;9.75;;;4.30;;
82985;SDS011;72786;53.546;9.910;2024-02-14T12:35:54;12.10;;;5.18;;
82985;SDS011;72786;53.546;9.910;2024-02-14T12:38:22;12.73;;;4.97;;
82985;SDS011;72786;53.546;9.910;2024-02-14T12:40:49;12.85;;;5.72;;
82985;SDS011;72786;53.546;9.910;2024-02-14T12:43:19;11.85;;;5.38;;
82985;SDS011;72786;53.546;9.910;2024-02-14T12:45:45;12.68;;;5.63;;
82985;SDS011;72786;53.546;9.910;2024-02-14T12:48:12;15.90;;;6.25;;
82985;SDS011;72786;53.546;9.910;2024-02-14T12:50:40;14.00;;;6.28;;
82985;SDS011;72786;53.546;9.910;2024-02-14T12:53:13;19.48;;;7.35;;
82985;SDS011;72786;53.546;9.910;2024-02-14T12:55:40;17.55;;;7.10;;
82985;SDS011;72786;53.546;9.910;2024-02-14T12:58:06;19.80;;;7.45;;
82985;SDS011;72786;53.546;9.910;2024-02-14T13:00:33;17.65;;;7.13;;
82985;SDS011;72786;53.546;9.910;2024-02-14T13:03:00;15.35;;;6.95;;
82985;SDS011;72786;53.546;9.910;2024-02-14T13:05:27;20.85;;;7.45;;
82985;SDS011;72786;53.546;9.910;2024-02-14T13:07:54;19.00;;;6.93;;
82985;SDS011;72786;53.546;9.910;2024-02-14T13:10:20;16.17;;;7.18;;
82985;SDS011;72786;53.546;9.910;2024-02-14T13:12:47;15.98;;;6.05;;
82985;SDS011;72786;53.546;9.910;2024-02-14T13:15:13;15.60;;;6.10;;
82985;SDS011;72786;53.546;9.910;2024-02-14T13:17:40;15.95;;;5.97;;
82985;SDS011;72786;53.546;9.910;2024-02-14T13:20:06;12.95;;;5.03;;
82985;SDS011;72786;53.546;9.910;2024-02-14T13:22:34;13.02;;;4.82;;
82985;SDS011;72786;53.546;9.910;2024-02-14T13:25:01;14.80;;;6.15;;
82985;SDS011;72786;53.546;9.910;2024-02-14T13:27:29;12.77;;;4.93;;
82985;SDS011;72786;53.546;9.910;2024-02-14T13:29:55;14.93;;;5.32;;
82985;SDS011;72786;53.546;9.910;2024-02-14T13:32:22;14.50;;;5.60;;
82985;SDS011;72786;53.546;9.910;2024-02-14T13:34:48;10.32;;;4.97;;
82985;SDS011;72786;53.546;9.910;2024-02-14T13:37:15;11.68;;;4.97;;
82985;SDS011;72786;53.546;9.910;2024-02-14T13:39:42;13.18;;;5.10;;
82985;SDS011;72786;53.546;9.910;2024-02-14T13:42:10;12.98;;;5.53;;
82985;SDS011;72786;53.546;9.910;2024-02-14T13:44:36;11.70;;;4.93;;
82985;SDS011;72786;53.546;9.910;2024-02-14T13:47:03;13.57;;;5.60;;
82985;SDS011;72786;53.546;9.910;2024-02-14T13:49:29;14.68;;;5.55;;
82985;SDS011;72786;53.546;9.910;2024-02-14T13:51:56;12.43;;;5.63;;
82985;SDS011;72786;53.546;9.910;2024-02-14T13:54:24;15.25;;;6.10;;
82985;SDS011;72786;53.546;9.910;2024-02-14T13:56:50;13.52;;;5.80;;
82985;SDS011;72786;53.546;9.910;2024-02-14T13:59:18;13.77;;;5.57;;
82985;SDS011;72786;53.546;9.910;2024-02-14T14:01:45;16.33;;;5.78;;
82985;SDS011;72786;53.546;9.910;2024-02-14T14:04:12;14.38;;;6.28;;
82985;SDS011;72786;53.546;9.910;2024-02-14T14:06:38;13.95;;;6.10;;
82985;SDS011;72786;53.546;9.910;2024-02-14T14:09:05;14.48;;;6.18;;
82985;SDS011;72786;53.546;9.910;2024-02-14T14:11:34;14.55;;;6.50;;
82985;SDS011;72786;53.546;9.910;2024-02-14T14:14:00;13.77;;;6.40;;
82985;SDS011;72786;53.546;9.910;2024-02-14T14:16:27;12.32;;;5.15;;
82985;SDS011;72786;53.546;9.910;2024-02-14T14:18:53;13.23;;;5.30;;
82985;SDS011;72786;53.546;9.910;2024-02-14T14:21:20;11.38;;;5.30;;
82985;SDS011;72786;53.546;9.910;2024-02-14T14:23:47;12.35;;;5.60;;
82985;SDS011;72786;53.546;9.910;2024-02-14T14:26:13;12.43;;;5.88;;
82985;SDS011;72786;53.546;9.910;2024-02-14T14:28:41;13.75;;;5.57;;
82985;SDS011;72786;53.546;9.910;2024-02-14T14:31:08;14.55;;;5.40;;
82985;SDS011;72786;53.546;9.910;2024-02-14T14:33:38;13.38;;;5.47;;
82985;SDS011;72786;53.546;9.910;2024-02-14T14:36:05;12.57;;;6.03;;
82985;SDS011;72786;53.546;9.910;2024-02-14T14:38:32;12.63;;;6.28;;
82985;SDS011;72786;53.546;9.910;2024-02-14T14:40:59;12.40;;;5.90;;
82985;SDS011;72786;53.546;9.910;2024-02-14T14:43:25;16.70;;;6.40;;
82985;SDS011;72786;53.546;9.910;2024-02-14T14:45:52;15.40;;;6.43;;